sensor_id;sensor_type;location;lat;lon;timestamp;temperature;humidity
71942;DHT22;59997;53.300;-6.260;2022-12-04T00:00:32;4.17;90.14
71942;DHT22;59997;53.300;-6.260;2022-12-04T00:02:59;4.57;89.73
71942;DHT22;59997;53.300;-6.260;2022-12-04T00:05:24;4.85;89.27
71942;DHT22;59997;53.300;-6.260;2022-12-04T00:07:50;5.09;88.83
71942;DHT22;59997;53.300;-6.260;2022-12-04T00:10:15;5.29;87.78
71942;DHT22;59997;53.300;-6.260;2022-12-04T00:12:41;5.43;87.18
71942;DHT22;59997;53.300;-6.260;2022-12-04T00:15:09;5.63;85.95
71942;DHT22;59997;53.300;-6.260;2022-12-04T00:17:38;5.60;85.38
71942;DHT22;59997;53.300;-6.260;2022-12-04T00:20:05;5.46;85.40
71942;DHT22;59997;53.300;-6.260;2022-12-04T00:22:32;5.46;85.08
71942;DHT22;59997;53.300;-6.260;2022-12-04T00:24:58;5.43;84.75
71942;DHT22;59997;53.300;-6.260;2022-12-04T00:27:25;5.15;85.25
71942;DHT22;59997;53.300;-6.260;2022-12-04T00:29:51;5.28;84.53
71942;DHT22;59997;53.300;-6.260;2022-12-04T00:32:17;5.33;84.43
71942;DHT22;59997;53.300;-6.260;2022-12-04T00:34:43;5.39;84.15
71942;DHT22;59997;53.300;-6.260;2022-12-04T00:37:09;5.31;84.07
71942;DHT22;59997;53.300;-6.260;2022-12-04T00:39:36;5.19;84.49
71942;DHT22;59997;53.300;-6.260;2022-12-04T00:42:02;5.16;84.39
71942;DHT22;59997;53.300;-6.260;2022-12-04T00:44:28;4.95;84.77
71942;DHT22;59997;53.300;-6.260;2022-12-04T00:46:54;4.91;84.91
71942;DHT22;59997;53.300;-6.260;2022-12-04T00:49:20;5.02;84.36
71942;DHT22;59997;53.300;-6.260;2022-12-04T00:51:46;4.85;84.62
71942;DHT22;59997;53.300;-6.260;2022-12-04T00:54:14;4.83;84.71
71942;DHT22;59997;53.300;-6.260;2022-12-04T00:56:43;4.92;84.84
71942;DHT22;59997;53.300;-6.260;2022-12-04T00:59:09;4.98;84.74
71942;DHT22;59997;53.300;-6.260;2022-12-04T01:01:37;5.01;84.91
71942;DHT22;59997;53.300;-6.260;2022-12-04T01:04:03;4.98;85.22
71942;DHT22;59997;53.300;-6.260;2022-12-04T01:06:49;5.00;85.02
71942;DHT22;59997;53.300;-6.260;2022-12-04T01:09:14;4.83;85.27
71942;DHT22;59997;53.300;-6.260;2022-12-04T01:11:40;4.94;85.49
71942;DHT22;59997;53.300;-6.260;2022-12-04T01:14:06;5.02;85.54
71942;DHT22;59997;53.300;-6.260;2022-12-04T01:16:37;5.14;85.15
71942;DHT22;59997;53.300;-6.260;2022-12-04T01:19:09;5.26;84.46
71942;DHT22;59997;53.300;-6.260;2022-12-04T01:21:36;5.33;84.25
71942;DHT22;59997;53.300;-6.260;2022-12-04T01:24:03;5.26;84.38
71942;DHT22;59997;53.300;-6.260;2022-12-04T01:26:29;5.18;84.53
71942;DHT22;59997;53.300;-6.260;2022-12-04T01:28:55;5.22;84.56
71942;DHT22;59997;53.300;-6.260;2022-12-04T01:31:23;5.16;84.64
71942;DHT22;59997;53.300;-6.260;2022-12-04T01:33:49;5.11;84.87
71942;DHT22;59997;53.300;-6.260;2022-12-04T01:36:18;5.09;85.00
71942;DHT22;59997;53.300;-6.260;2022-12-04T01:38:45;5.14;84.68
71942;DHT22;59997;53.300;-6.260;2022-12-04T01:41:12;5.24;84.37
71942;DHT22;59997;53.300;-6.260;2022-12-04T01:43:38;5.22;84.28
71942;DHT22;59997;53.300;-6.260;2022-12-04T01:46:06;5.29;83.86
71942;DHT22;59997;53.300;-6.260;2022-12-04T01:48:43;5.50;82.56
71942;DHT22;59997;53.300;-6.260;2022-12-04T01:51:22;5.63;82.13
71942;DHT22;59997;53.300;-6.260;2022-12-04T01:54:01;5.57;81.91
71942;DHT22;59997;53.300;-6.260;2022-12-04T01:56:48;5.44;82.30
71942;DHT22;59997;53.300;-6.260;2022-12-04T01:59:19;5.42;82.39
71942;DHT22;59997;53.300;-6.260;2022-12-04T02:02:10;5.35;82.85
71942;DHT22;59997;53.300;-6.260;2022-12-04T02:04:47;5.19;83.48
71942;DHT22;59997;53.300;-6.260;2022-12-04T02:07:13;5.12;83.85
71942;DHT22;59997;53.300;-6.260;2022-12-04T02:09:40;5.21;83.84
71942;DHT22;59997;53.300;-6.260;2022-12-04T02:12:18;5.22;83.90
71942;DHT22;59997;53.300;-6.260;2022-12-04T02:14:51;5.36;83.35
71942;DHT22;59997;53.300;-6.260;2022-12-04T02:17:41;5.63;82.53
71942;DHT22;59997;53.300;-6.260;2022-12-04T02:20:38;5.60;82.67
71942;DHT22;59997;53.300;-6.260;2022-12-04T02:29:43;5.46;82.97
71942;DHT22;59997;53.300;-6.260;2022-12-04T02:32:41;5.60;82.67
71942;DHT22;59997;53.300;-6.260;2022-12-04T02:35:30;5.52;82.20
71942;DHT22;59997;53.300;-6.260;2022-12-04T02:41:14;5.38;82.58
71942;DHT22;59997;53.300;-6.260;2022-12-04T02:43:55;5.15;83.32
71942;DHT22;59997;53.300;-6.260;2022-12-04T02:46:38;5.28;82.96
71942;DHT22;59997;53.300;-6.260;2022-12-04T02:49:21;5.36;82.54
71942;DHT22;59997;53.300;-6.260;2022-12-04T02:51:58;5.53;81.74
71942;DHT22;59997;53.300;-6.260;2022-12-04T02:54:34;5.59;82.02
71942;DHT22;59997;53.300;-6.260;2022-12-04T02:57:02;5.61;82.12
71942;DHT22;59997;53.300;-6.260;2022-12-04T02:59:40;5.74;82.03
71942;DHT22;59997;53.300;-6.260;2022-12-04T03:02:31;5.85;81.74
71942;DHT22;59997;53.300;-6.260;2022-12-04T03:05:03;6.02;80.98
71942;DHT22;59997;53.300;-6.260;2022-12-04T03:07:57;6.16;81.10
71942;DHT22;59997;53.300;-6.260;2022-12-04T03:10:50;6.20;81.34
71942;DHT22;59997;53.300;-6.260;2022-12-04T03:14:10;6.23;81.26
71942;DHT22;59997;53.300;-6.260;2022-12-04T03:16:22;6.32;80.34
71942;DHT22;59997;53.300;-6.260;2022-12-04T03:19:23;6.30;80.79
71942;DHT22;59997;53.300;-6.260;2022-12-04T03:21:55;6.36;80.07
71942;DHT22;59997;53.300;-6.260;2022-12-04T03:24:38;6.30;80.69
71942;DHT22;59997;53.300;-6.260;2022-12-04T03:33:06;6.28;81.03
71942;DHT22;59997;53.300;-6.260;2022-12-04T03:35:45;6.28;81.16
71942;DHT22;59997;53.300;-6.260;2022-12-04T03:38:27;6.36;81.23
71942;DHT22;59997;53.300;-6.260;2022-12-04T03:41:04;6.28;81.66
71942;DHT22;59997;53.300;-6.260;2022-12-04T03:43:38;6.15;81.91
71942;DHT22;59997;53.300;-6.260;2022-12-04T03:46:38;5.99;82.30
71942;DHT22;59997;53.300;-6.260;2022-12-04T03:49:16;5.98;82.76
71942;DHT22;59997;53.300;-6.260;2022-12-04T03:52:02;5.95;83.11
71942;DHT22;59997;53.300;-6.260;2022-12-04T03:54:35;5.88;83.39
71942;DHT22;59997;53.300;-6.260;2022-12-04T03:57:12;5.67;83.94
71942;DHT22;59997;53.300;-6.260;2022-12-04T03:59:44;5.50;84.35
71942;DHT22;59997;53.300;-6.260;2022-12-04T04:02:13;5.44;84.60
71942;DHT22;59997;53.300;-6.260;2022-12-04T04:04:44;5.38;85.14
71942;DHT22;59997;53.300;-6.260;2022-12-04T04:10:07;5.68;84.86
71942;DHT22;59997;53.300;-6.260;2022-12-04T04:12:43;5.85;84.37
71942;DHT22;59997;53.300;-6.260;2022-12-04T04:15:43;5.87;84.30
71942;DHT22;59997;53.300;-6.260;2022-12-04T04:18:30;5.91;83.67
71942;DHT22;59997;53.300;-6.260;2022-12-04T04:21:20;5.99;82.74
71942;DHT22;59997;53.300;-6.260;2022-12-04T04:24:09;5.90;82.64
71942;DHT22;59997;53.300;-6.260;2022-12-04T04:26:44;5.95;82.10
71942;DHT22;59997;53.300;-6.260;2022-12-04T04:29:12;5.93;81.84
71942;DHT22;59997;53.300;-6.260;2022-12-04T04:34:25;6.06;82.36
71942;DHT22;59997;53.300;-6.260;2022-12-04T04:37:37;6.15;82.58
71942;DHT22;59997;53.300;-6.260;2022-12-04T04:42:48;6.13;83.14
71942;DHT22;59997;53.300;-6.260;2022-12-04T04:45:20;6.19;82.86
71942;DHT22;59997;53.300;-6.260;2022-12-04T04:48:12;6.19;82.36
71942;DHT22;59997;53.300;-6.260;2022-12-04T04:50:39;6.16;82.41
71942;DHT22;59997;53.300;-6.260;2022-12-04T04:53:12;6.12;82.49
71942;DHT22;59997;53.300;-6.260;2022-12-04T04:55:39;6.19;81.72
71942;DHT22;59997;53.300;-6.260;2022-12-04T04:58:08;6.22;81.23
71942;DHT22;59997;53.300;-6.260;2022-12-04T05:00:35;6.20;80.63
71942;DHT22;59997;53.300;-6.260;2022-12-04T05:03:04;6.20;79.73
71942;DHT22;59997;53.300;-6.260;2022-12-04T05:05:30;6.28;79.27
71942;DHT22;59997;53.300;-6.260;2022-12-04T05:07:56;6.34;78.85
71942;DHT22;59997;53.300;-6.260;2022-12-04T05:10:22;6.37;79.34
71942;DHT22;59997;53.300;-6.260;2022-12-04T05:12:50;6.36;79.21
71942;DHT22;59997;53.300;-6.260;2022-12-04T05:15:16;6.34;79.21
71942;DHT22;59997;53.300;-6.260;2022-12-04T05:17:43;6.43;79.14
71942;DHT22;59997;53.300;-6.260;2022-12-04T05:20:09;6.46;79.48
71942;DHT22;59997;53.300;-6.260;2022-12-04T05:22:36;6.47;79.49
71942;DHT22;59997;53.300;-6.260;2022-12-04T05:25:05;6.47;79.63
71942;DHT22;59997;53.300;-6.260;2022-12-04T05:27:31;6.54;79.79
71942;DHT22;59997;53.300;-6.260;2022-12-04T05:29:57;6.50;80.00
71942;DHT22;59997;53.300;-6.260;2022-12-04T05:32:25;6.44;81.16
71942;DHT22;59997;53.300;-6.260;2022-12-04T05:34:53;6.43;81.84
71942;DHT22;59997;53.300;-6.260;2022-12-04T05:37:21;6.34;82.25
71942;DHT22;59997;53.300;-6.260;2022-12-04T05:39:49;6.33;82.32
71942;DHT22;59997;53.300;-6.260;2022-12-04T05:42:15;6.32;82.41
71942;DHT22;59997;53.300;-6.260;2022-12-04T05:44:41;6.16;83.44
71942;DHT22;59997;53.300;-6.260;2022-12-04T05:47:07;5.98;83.98
71942;DHT22;59997;53.300;-6.260;2022-12-04T05:49:34;5.74;83.88
71942;DHT22;59997;53.300;-6.260;2022-12-04T05:52:02;5.61;83.86
71942;DHT22;59997;53.300;-6.260;2022-12-04T05:54:29;5.44;84.04
71942;DHT22;59997;53.300;-6.260;2022-12-04T05:56:55;5.32;84.81
71942;DHT22;59997;53.300;-6.260;2022-12-04T05:59:20;5.14;85.56
71942;DHT22;59997;53.300;-6.260;2022-12-04T06:01:46;4.77;85.76
71942;DHT22;59997;53.300;-6.260;2022-12-04T06:04:12;4.45;86.39
71942;DHT22;59997;53.300;-6.260;2022-12-04T06:06:37;4.32;86.82
71942;DHT22;59997;53.300;-6.260;2022-12-04T06:09:04;4.17;87.47
71942;DHT22;59997;53.300;-6.260;2022-12-04T06:11:35;4.08;88.46
71942;DHT22;59997;53.300;-6.260;2022-12-04T06:14:05;4.05;88.37
71942;DHT22;59997;53.300;-6.260;2022-12-04T06:16:36;4.13;88.47
71942;DHT22;59997;53.300;-6.260;2022-12-04T06:19:07;4.21;88.31
71942;DHT22;59997;53.300;-6.260;2022-12-04T06:21:36;4.25;88.34
71942;DHT22;59997;53.300;-6.260;2022-12-04T06:24:03;4.14;88.62
71942;DHT22;59997;53.300;-6.260;2022-12-04T06:26:30;4.14;89.04
71942;DHT22;59997;53.300;-6.260;2022-12-04T06:28:57;4.52;88.71
71942;DHT22;59997;53.300;-6.260;2022-12-04T06:31:25;4.88;87.72
71942;DHT22;59997;53.300;-6.260;2022-12-04T06:33:56;5.01;87.42
71942;DHT22;59997;53.300;-6.260;2022-12-04T06:36:24;5.05;87.15
71942;DHT22;59997;53.300;-6.260;2022-12-04T06:38:53;5.04;86.81
71942;DHT22;59997;53.300;-6.260;2022-12-04T06:41:20;5.14;86.16
71942;DHT22;59997;53.300;-6.260;2022-12-04T06:43:46;5.14;86.04
71942;DHT22;59997;53.300;-6.260;2022-12-04T06:46:16;5.14;85.74
71942;DHT22;59997;53.300;-6.260;2022-12-04T06:48:44;5.18;84.74
71942;DHT22;59997;53.300;-6.260;2022-12-04T06:51:20;4.83;85.43
71942;DHT22;59997;53.300;-6.260;2022-12-04T06:53:46;4.53;86.00
71942;DHT22;59997;53.300;-6.260;2022-12-04T06:56:18;4.49;85.87
71942;DHT22;59997;53.300;-6.260;2022-12-04T06:59:05;4.46;86.27
71942;DHT22;59997;53.300;-6.260;2022-12-04T07:01:32;4.46;86.19
71942;DHT22;59997;53.300;-6.260;2022-12-04T07:03:58;4.42;86.53
71942;DHT22;59997;53.300;-6.260;2022-12-04T07:06:28;4.44;86.63
71942;DHT22;59997;53.300;-6.260;2022-12-04T07:08:58;4.31;87.09
71942;DHT22;59997;53.300;-6.260;2022-12-04T07:11:25;4.48;87.05
71942;DHT22;59997;53.300;-6.260;2022-12-04T07:13:51;4.42;87.53
71942;DHT22;59997;53.300;-6.260;2022-12-04T07:16:19;4.55;88.18
71942;DHT22;59997;53.300;-6.260;2022-12-04T07:18:46;4.72;88.11
71942;DHT22;59997;53.300;-6.260;2022-12-04T07:21:18;4.80;87.87
71942;DHT22;59997;53.300;-6.260;2022-12-04T07:23:44;4.91;87.65
71942;DHT22;59997;53.300;-6.260;2022-12-04T07:26:18;4.95;87.60
71942;DHT22;59997;53.300;-6.260;2022-12-04T07:28:45;5.04;87.49
71942;DHT22;59997;53.300;-6.260;2022-12-04T07:31:13;5.02;87.63
71942;DHT22;59997;53.300;-6.260;2022-12-04T07:33:40;4.97;88.00
71942;DHT22;59997;53.300;-6.260;2022-12-04T07:36:09;4.88;87.71
71942;DHT22;59997;53.300;-6.260;2022-12-04T07:38:39;4.77;87.54
71942;DHT22;59997;53.300;-6.260;2022-12-04T07:41:14;4.65;87.39
71942;DHT22;59997;53.300;-6.260;2022-12-04T07:43:41;4.57;87.39
71942;DHT22;59997;53.300;-6.260;2022-12-04T07:46:13;4.65;86.58
71942;DHT22;59997;53.300;-6.260;2022-12-04T07:48:41;4.59;86.99
71942;DHT22;59997;53.300;-6.260;2022-12-04T07:51:14;4.44;87.03
71942;DHT22;59997;53.300;-6.260;2022-12-04T07:53:41;4.32;87.53
71942;DHT22;59997;53.300;-6.260;2022-12-04T07:56:07;4.30;87.68
71942;DHT22;59997;53.300;-6.260;2022-12-04T07:58:34;4.35;87.61
71942;DHT22;59997;53.300;-6.260;2022-12-04T08:03:32;4.44;87.57
71942;DHT22;59997;53.300;-6.260;2022-12-04T08:06:02;4.55;87.73
71942;DHT22;59997;53.300;-6.260;2022-12-04T08:08:28;4.57;87.64
71942;DHT22;59997;53.300;-6.260;2022-12-04T08:10:54;4.44;88.00
71942;DHT22;59997;53.300;-6.260;2022-12-04T08:13:21;4.32;88.32
71942;DHT22;59997;53.300;-6.260;2022-12-04T08:15:47;4.35;88.74
71942;DHT22;59997;53.300;-6.260;2022-12-04T08:18:13;4.37;89.20
71942;DHT22;59997;53.300;-6.260;2022-12-04T08:20:40;4.31;89.38
71942;DHT22;59997;53.300;-6.260;2022-12-04T08:23:07;4.22;89.50
71942;DHT22;59997;53.300;-6.260;2022-12-04T08:25:33;4.18;89.77
71942;DHT22;59997;53.300;-6.260;2022-12-04T08:27:59;4.13;89.84
71942;DHT22;59997;53.300;-6.260;2022-12-04T08:30:25;4.11;89.84
71942;DHT22;59997;53.300;-6.260;2022-12-04T08:32:51;4.13;90.09
71942;DHT22;59997;53.300;-6.260;2022-12-04T08:35:16;4.13;90.08
71942;DHT22;59997;53.300;-6.260;2022-12-04T08:37:41;4.48;89.61
71942;DHT22;59997;53.300;-6.260;2022-12-04T08:40:08;4.60;89.25
71942;DHT22;59997;53.300;-6.260;2022-12-04T08:42:34;4.53;89.67
71942;DHT22;59997;53.300;-6.260;2022-12-04T08:44:59;4.72;89.55
71942;DHT22;59997;53.300;-6.260;2022-12-04T08:47:25;4.73;89.50
71942;DHT22;59997;53.300;-6.260;2022-12-04T08:49:53;4.67;89.87
71942;DHT22;59997;53.300;-6.260;2022-12-04T08:52:18;4.92;89.87
71942;DHT22;59997;53.300;-6.260;2022-12-04T08:54:44;5.02;89.95
71942;DHT22;59997;53.300;-6.260;2022-12-04T08:57:10;5.19;90.05
71942;DHT22;59997;53.300;-6.260;2022-12-04T08:59:36;5.35;89.95
71942;DHT22;59997;53.300;-6.260;2022-12-04T09:02:01;5.49;89.52
71942;DHT22;59997;53.300;-6.260;2022-12-04T09:04:28;5.59;89.15
71942;DHT22;59997;53.300;-6.260;2022-12-04T09:06:53;5.64;88.56
71942;DHT22;59997;53.300;-6.260;2022-12-04T09:09:19;5.50;88.57
71942;DHT22;59997;53.300;-6.260;2022-12-04T09:11:46;5.43;88.28
71942;DHT22;59997;53.300;-6.260;2022-12-04T09:14:12;5.32;88.57
71942;DHT22;59997;53.300;-6.260;2022-12-04T09:16:37;5.33;88.97
71942;DHT22;59997;53.300;-6.260;2022-12-04T09:19:03;5.40;88.85
71942;DHT22;59997;53.300;-6.260;2022-12-04T09:21:29;5.32;90.70
71942;DHT22;59997;53.300;-6.260;2022-12-04T09:23:58;4.90;91.19
71942;DHT22;59997;53.300;-6.260;2022-12-04T09:26:31;4.56;91.26
71942;DHT22;59997;53.300;-6.260;2022-12-04T09:29:01;4.49;91.39
71942;DHT22;59997;53.300;-6.260;2022-12-04T09:31:28;4.52;91.19
71942;DHT22;59997;53.300;-6.260;2022-12-04T09:33:57;4.59;91.16
71942;DHT22;59997;53.300;-6.260;2022-12-04T09:36:25;4.55;91.27
71942;DHT22;59997;53.300;-6.260;2022-12-04T09:38:52;4.49;91.24
71942;DHT22;59997;53.300;-6.260;2022-12-04T09:41:30;4.52;91.22
71942;DHT22;59997;53.300;-6.260;2022-12-04T09:47:03;4.87;90.66
71942;DHT22;59997;53.300;-6.260;2022-12-04T09:49:45;5.07;90.47
71942;DHT22;59997;53.300;-6.260;2022-12-04T09:54:57;5.14;89.58
71942;DHT22;59997;53.300;-6.260;2022-12-04T09:57:34;5.09;89.28
71942;DHT22;59997;53.300;-6.260;2022-12-04T10:00:10;5.05;89.31
71942;DHT22;59997;53.300;-6.260;2022-12-04T10:02:41;5.00;89.43
71942;DHT22;59997;53.300;-6.260;2022-12-04T10:05:24;5.00;89.59
71942;DHT22;59997;53.300;-6.260;2022-12-04T10:08:15;5.18;89.42
71942;DHT22;59997;53.300;-6.260;2022-12-04T10:11:07;5.38;89.46
71942;DHT22;59997;53.300;-6.260;2022-12-04T10:14:04;5.52;89.29
71942;DHT22;59997;53.300;-6.260;2022-12-04T10:16:44;5.56;89.09
71942;DHT22;59997;53.300;-6.260;2022-12-04T10:25:25;5.79;88.58
71942;DHT22;59997;53.300;-6.260;2022-12-04T10:28:18;5.64;88.85
71942;DHT22;59997;53.300;-6.260;2022-12-04T10:30:47;5.63;88.43
71942;DHT22;59997;53.300;-6.260;2022-12-04T10:33:20;5.63;88.70
71942;DHT22;59997;53.300;-6.260;2022-12-04T10:35:50;5.70;88.86
71942;DHT22;59997;53.300;-6.260;2022-12-04T10:44:27;5.74;88.68
71942;DHT22;59997;53.300;-6.260;2022-12-04T10:46:58;5.77;88.73
71942;DHT22;59997;53.300;-6.260;2022-12-04T10:49:33;5.77;88.61
71942;DHT22;59997;53.300;-6.260;2022-12-04T10:52:01;5.59;88.63
71942;DHT22;59997;53.300;-6.260;2022-12-04T10:54:44;5.47;88.92
71942;DHT22;59997;53.300;-6.260;2022-12-04T10:57:13;5.54;89.02
71942;DHT22;59997;53.300;-6.260;2022-12-04T11:02:33;5.50;89.32
71942;DHT22;59997;53.300;-6.260;2022-12-04T11:05:07;5.46;89.62
71942;DHT22;59997;53.300;-6.260;2022-12-04T11:07:47;5.44;89.30
71942;DHT22;59997;53.300;-6.260;2022-12-04T11:10:34;5.46;89.37
71942;DHT22;59997;53.300;-6.260;2022-12-04T11:13:13;5.56;89.33
71942;DHT22;59997;53.300;-6.260;2022-12-04T11:15:47;5.64;89.37
71942;DHT22;59997;53.300;-6.260;2022-12-04T11:18:23;5.85;88.96
71942;DHT22;59997;53.300;-6.260;2022-12-04T11:20:56;5.99;88.04
71942;DHT22;59997;53.300;-6.260;2022-12-04T11:23:24;6.08;88.26
71942;DHT22;59997;53.300;-6.260;2022-12-04T11:25:53;6.15;87.64
71942;DHT22;59997;53.300;-6.260;2022-12-04T11:28:22;6.23;86.57
71942;DHT22;59997;53.300;-6.260;2022-12-04T11:30:52;6.19;87.01
71942;DHT22;59997;53.300;-6.260;2022-12-04T11:33:54;6.22;86.16
71942;DHT22;59997;53.300;-6.260;2022-12-04T11:36:29;6.26;86.74
71942;DHT22;59997;53.300;-6.260;2022-12-04T11:39:17;6.25;84.83
71942;DHT22;59997;53.300;-6.260;2022-12-04T11:41:45;6.20;84.64
71942;DHT22;59997;53.300;-6.260;2022-12-04T11:44:30;6.18;85.27
71942;DHT22;59997;53.300;-6.260;2022-12-04T11:46:59;6.20;85.85
71942;DHT22;59997;53.300;-6.260;2022-12-04T11:49:30;6.25;86.03
71942;DHT22;59997;53.300;-6.260;2022-12-04T11:58:07;6.34;85.86
71942;DHT22;59997;53.300;-6.260;2022-12-04T12:00:26;6.39;85.39
71942;DHT22;59997;53.300;-6.260;2022-12-04T12:06:06;6.41;85.48
71942;DHT22;59997;53.300;-6.260;2022-12-04T12:08:59;6.44;85.74
71942;DHT22;59997;53.300;-6.260;2022-12-04T12:11:39;6.39;87.03
71942;DHT22;59997;53.300;-6.260;2022-12-04T12:20:59;5.95;88.15
71942;DHT22;59997;53.300;-6.260;2022-12-04T12:23:52;5.91;88.52
71942;DHT22;59997;53.300;-6.260;2022-12-04T12:26:26;5.87;88.57
71942;DHT22;59997;53.300;-6.260;2022-12-04T12:34:46;5.83;89.32
71942;DHT22;59997;53.300;-6.260;2022-12-04T12:37:30;5.94;89.41
71942;DHT22;59997;53.300;-6.260;2022-12-04T12:40:19;6.01;89.07
71942;DHT22;59997;53.300;-6.260;2022-12-04T12:42:55;6.12;89.13
71942;DHT22;59997;53.300;-6.260;2022-12-04T12:48:43;6.29;88.65
71942;DHT22;59997;53.300;-6.260;2022-12-04T12:57:25;5.75;89.74
71942;DHT22;59997;53.300;-6.260;2022-12-04T13:02:52;5.73;90.04
71942;DHT22;59997;53.300;-6.260;2022-12-04T13:05:49;5.88;90.22
71942;DHT22;59997;53.300;-6.260;2022-12-04T13:08:49;6.13;90.40
71942;DHT22;59997;53.300;-6.260;2022-12-04T13:11:23;6.50;89.98
71942;DHT22;59997;53.300;-6.260;2022-12-04T13:13:56;6.75;89.83
71942;DHT22;59997;53.300;-6.260;2022-12-04T13:16:26;6.89;89.46
71942;DHT22;59997;53.300;-6.260;2022-12-04T13:21:48;6.77;89.48
71942;DHT22;59997;53.300;-6.260;2022-12-04T13:24:40;6.53;88.72
71942;DHT22;59997;53.300;-6.260;2022-12-04T13:33:23;6.28;88.76
71942;DHT22;59997;53.300;-6.260;2022-12-04T13:40:25;6.39;87.74
71942;DHT22;59997;53.300;-6.260;2022-12-04T13:42:25;6.47;88.12
71942;DHT22;59997;53.300;-6.260;2022-12-04T13:44:56;6.51;87.63
71942;DHT22;59997;53.300;-6.260;2022-12-04T13:47:32;6.55;86.47
71942;DHT22;59997;53.300;-6.260;2022-12-04T13:50:29;6.65;86.75
71942;DHT22;59997;53.300;-6.260;2022-12-04T13:52:56;6.68;86.32
71942;DHT22;59997;53.300;-6.260;2022-12-04T13:55:36;6.75;85.96
71942;DHT22;59997;53.300;-6.260;2022-12-04T13:58:30;6.85;85.83
71942;DHT22;59997;53.300;-6.260;2022-12-04T14:01:36;6.91;85.22
71942;DHT22;59997;53.300;-6.260;2022-12-04T14:03:55;6.80;85.05
71942;DHT22;59997;53.300;-6.260;2022-12-04T14:06:31;6.72;85.93
71942;DHT22;59997;53.300;-6.260;2022-12-04T14:09:02;6.78;85.27
71942;DHT22;59997;53.300;-6.260;2022-12-04T14:11:43;6.78;84.07
71942;DHT22;59997;53.300;-6.260;2022-12-04T14:14:30;6.55;84.64
71942;DHT22;59997;53.300;-6.260;2022-12-04T14:16:58;6.43;85.00
71942;DHT22;59997;53.300;-6.260;2022-12-04T14:19:30;6.32;84.89
71942;DHT22;59997;53.300;-6.260;2022-12-04T14:21:57;6.33;84.48
71942;DHT22;59997;53.300;-6.260;2022-12-04T14:24:37;6.33;84.36
71942;DHT22;59997;53.300;-6.260;2022-12-04T14:27:44;6.34;83.96
71942;DHT22;59997;53.300;-6.260;2022-12-04T14:30:32;6.40;84.33
71942;DHT22;59997;53.300;-6.260;2022-12-04T14:33:19;6.39;84.66
71942;DHT22;59997;53.300;-6.260;2022-12-04T14:36:00;6.40;85.44
71942;DHT22;59997;53.300;-6.260;2022-12-04T14:38:28;6.44;86.05
71942;DHT22;59997;53.300;-6.260;2022-12-04T14:40:55;6.47;86.79
71942;DHT22;59997;53.300;-6.260;2022-12-04T14:43:26;6.57;86.04
71942;DHT22;59997;53.300;-6.260;2022-12-04T14:46:16;6.54;86.58
71942;DHT22;59997;53.300;-6.260;2022-12-04T15:00:17;6.46;86.95
71942;DHT22;59997;53.300;-6.260;2022-12-04T15:02:45;6.41;86.94
71942;DHT22;59997;53.300;-6.260;2022-12-04T15:05:26;6.40;86.48
71942;DHT22;59997;53.300;-6.260;2022-12-04T15:07:56;6.39;86.57
71942;DHT22;59997;53.300;-6.260;2022-12-04T15:10:29;6.34;86.65
71942;DHT22;59997;53.300;-6.260;2022-12-04T15:13:31;6.33;87.38
71942;DHT22;59997;53.300;-6.260;2022-12-04T15:16:23;6.22;87.90
71942;DHT22;59997;53.300;-6.260;2022-12-04T15:19:02;6.08;87.97
71942;DHT22;59997;53.300;-6.260;2022-12-04T15:21:37;5.95;88.61
71942;DHT22;59997;53.300;-6.260;2022-12-04T15:24:20;5.90;88.98
71942;DHT22;59997;53.300;-6.260;2022-12-04T15:26:49;5.71;89.18
71942;DHT22;59997;53.300;-6.260;2022-12-04T15:29:20;5.50;89.36
71942;DHT22;59997;53.300;-6.260;2022-12-04T15:31:52;5.40;89.48
71942;DHT22;59997;53.300;-6.260;2022-12-04T15:34:26;5.32;89.64
71942;DHT22;59997;53.300;-6.260;2022-12-04T15:36:57;5.38;89.52
71942;DHT22;59997;53.300;-6.260;2022-12-04T15:39:28;5.40;89.61
71942;DHT22;59997;53.300;-6.260;2022-12-04T15:42:28;5.42;89.54
71942;DHT22;59997;53.300;-6.260;2022-12-04T15:45:22;5.43;89.45
71942;DHT22;59997;53.300;-6.260;2022-12-04T15:47:52;5.46;89.53
71942;DHT22;59997;53.300;-6.260;2022-12-04T15:50:20;5.49;89.71
71942;DHT22;59997;53.300;-6.260;2022-12-04T15:55:55;5.68;89.76
71942;DHT22;59997;53.300;-6.260;2022-12-04T15:58:26;5.74;89.09
71942;DHT22;59997;53.300;-6.260;2022-12-04T16:00:55;5.73;88.99
71942;DHT22;59997;53.300;-6.260;2022-12-04T16:03:48;5.73;88.30
71942;DHT22;59997;53.300;-6.260;2022-12-04T16:06:30;5.71;88.02
71942;DHT22;59997;53.300;-6.260;2022-12-04T16:09:22;5.74;87.03
71942;DHT22;59997;53.300;-6.260;2022-12-04T16:12:15;5.73;87.44
71942;DHT22;59997;53.300;-6.260;2022-12-04T16:14:43;5.78;86.58
71942;DHT22;59997;53.300;-6.260;2022-12-04T16:17:13;5.77;87.21
71942;DHT22;59997;53.300;-6.260;2022-12-04T16:19:40;5.87;86.95
71942;DHT22;59997;53.300;-6.260;2022-12-04T16:22:17;5.87;87.63
71942;DHT22;59997;53.300;-6.260;2022-12-04T16:24:44;5.85;87.81
71942;DHT22;59997;53.300;-6.260;2022-12-04T16:27:16;5.88;88.03
71942;DHT22;59997;53.300;-6.260;2022-12-04T16:29:45;5.88;88.12
71942;DHT22;59997;53.300;-6.260;2022-12-04T16:32:15;5.88;87.26
71942;DHT22;59997;53.300;-6.260;2022-12-04T16:34:41;5.83;87.30
71942;DHT22;59997;53.300;-6.260;2022-12-04T16:37:13;5.81;87.35
71942;DHT22;59997;53.300;-6.260;2022-12-04T16:39:39;5.79;86.79
71942;DHT22;59997;53.300;-6.260;2022-12-04T16:42:05;5.83;86.43
71942;DHT22;59997;53.300;-6.260;2022-12-04T16:44:30;5.84;86.36
71942;DHT22;59997;53.300;-6.260;2022-12-04T16:46:56;5.87;86.14
71942;DHT22;59997;53.300;-6.260;2022-12-04T16:49:23;5.84;86.49
71942;DHT22;59997;53.300;-6.260;2022-12-04T16:51:49;5.85;86.41
71942;DHT22;59997;53.300;-6.260;2022-12-04T16:54:15;6.01;85.09
71942;DHT22;59997;53.300;-6.260;2022-12-04T16:56:42;5.97;85.16
71942;DHT22;59997;53.300;-6.260;2022-12-04T16:59:08;5.97;85.15
71942;DHT22;59997;53.300;-6.260;2022-12-04T17:01:37;5.91;86.06
71942;DHT22;59997;53.300;-6.260;2022-12-04T17:04:04;5.88;85.89
71942;DHT22;59997;53.300;-6.260;2022-12-04T17:06:30;5.91;85.81
71942;DHT22;59997;53.300;-6.260;2022-12-04T17:08:58;6.01;85.56
71942;DHT22;59997;53.300;-6.260;2022-12-04T17:11:25;6.05;85.12
71942;DHT22;59997;53.300;-6.260;2022-12-04T17:13:51;6.05;85.16
71942;DHT22;59997;53.300;-6.260;2022-12-04T17:16:17;6.11;83.33
71942;DHT22;59997;53.300;-6.260;2022-12-04T17:18:43;6.09;84.19
71942;DHT22;59997;53.300;-6.260;2022-12-04T17:21:10;6.06;84.50
71942;DHT22;59997;53.300;-6.260;2022-12-04T17:23:37;6.01;85.33
71942;DHT22;59997;53.300;-6.260;2022-12-04T17:26:04;6.01;86.10
71942;DHT22;59997;53.300;-6.260;2022-12-04T17:28:32;6.08;85.63
71942;DHT22;59997;53.300;-6.260;2022-12-04T17:30:59;6.02;86.15
71942;DHT22;59997;53.300;-6.260;2022-12-04T17:33:27;5.97;86.57
71942;DHT22;59997;53.300;-6.260;2022-12-04T17:35:52;5.87;87.01
71942;DHT22;59997;53.300;-6.260;2022-12-04T17:38:19;5.83;87.46
71942;DHT22;59997;53.300;-6.260;2022-12-04T17:40:44;5.90;87.74
71942;DHT22;59997;53.300;-6.260;2022-12-04T17:43:10;5.87;88.29
71942;DHT22;59997;53.300;-6.260;2022-12-04T17:45:39;5.87;88.73
71942;DHT22;59997;53.300;-6.260;2022-12-04T17:48:06;5.94;88.67
71942;DHT22;59997;53.300;-6.260;2022-12-04T17:50:33;5.74;89.21
71942;DHT22;59997;53.300;-6.260;2022-12-04T17:52:59;5.61;89.45